Terminal Aerodrome Forecast
Issued by NWS

Home | Current Version | Previous Version | Text Only | Print | Product List | Glossary On
Versions: 1 2 3 4 5 6 7 8 9 10 11 12 13 14 15 16 17 18 19 20 21
000
FTUS45 KREV 300500
TAFTRK
TAF
KTRK 300526Z 3006/3106 VRB03KT P6SM BKN150
     FM301900 23014G24KT P6SM SCT150 BKN200
     FM310400 VRB03KT P6SM SCT180
      AMD NOT SKED TIL 301200=

USA.gov is the U.S. government's official web portal to all federal, state and local government web resources and services.